Time;durP1;ratioP1;P1;durP2;ratioP2;P2;SDS_P1;SDS_P2;PMS_P1;PMS_P2;Temp;Humidity;BMP_temperature;BMP_pressure;BME280_temperature;BME280_humidity;BME280_pressure;Samples;Min_cycle;Max_cycle;Signal;HPM_P1;HPM_P2
2023/10/04 00:00:51;;;;;;;2.60;1.40;;;;;;;14.45;88.40;100693.02;130373;1256;114649;-71
2023/10/04 00:04:13;;;;;;;7.10;1.70;;;;;;;14.41;88.12;100699.52;130373;1267;129607;-71
2023/10/04 00:07:15;;;;;;;7.40;1.70;;;;;;;14.39;88.51;100708.98;130384;1257;114775;-72
2023/10/04 00:10:19;;;;;;;3.00;1.70;;;;;;;14.39;88.58;100713.64;130538;1256;114793;-72
2023/10/04 00:13:22;;;;;;;9.70;2.60;;;;;;;14.37;88.62;100715.77;130641;1258;114763;-71
2023/10/04 00:16:27;;;;;;;6.60;2.00;;;;;;;14.30;88.24;100718.88;130393;1256;115308;-71
2023/10/04 00:19:29;;;;;;;5.90;1.90;;;;;;;14.22;88.08;100730.84;130423;1256;114760;-71
2023/10/04 00:22:31;;;;;;;6.20;2.40;;;;;;;14.13;87.92;100737.25;130323;1256;115409;-72
2023/10/04 00:25:33;;;;;;;6.30;1.80;;;;;;;14.06;88.11;100737.30;130417;1256;115071;-72
2023/10/04 00:28:37;;;;;;;3.80;1.80;;;;;;;14.02;88.18;100740.77;130582;1256;115179;-71
2023/10/04 00:31:40;;;;;;;4.60;2.40;;;;;;;13.99;88.27;100748.64;130475;1256;114718;-70
2023/10/04 00:34:41;;;;;;;3.90;1.70;;;;;;;13.97;88.52;100755.05;130471;1254;114706;-70
2023/10/04 00:37:44;;;;;;;9.00;2.40;;;;;;;13.95;88.60;100765.95;130350;1275;114781;-71
2023/10/04 00:40:50;;;;;;;8.20;2.40;;;;;;;13.93;88.56;100768.54;130291;1256;115096;-70
2023/10/04 00:43:52;;;;;;;6.20;2.20;;;;;;;13.91;88.56;100781.61;130277;1256;129157;-70
2023/10/04 00:46:55;;;;;;;6.50;2.30;;;;;;;13.88;88.37;100792.54;130397;1256;114681;-71
2023/10/04 00:50:00;;;;;;;7.20;2.50;;;;;;;13.87;88.39;100789.77;130445;1269;114829;-71
2023/10/04 00:53:13;;;;;;;7.80;2.90;;;;;;;13.85;88.41;100802.06;130332;1275;114769;-72
2023/10/04 00:56:16;;;;;;;6.10;2.80;;;;;;;13.85;88.37;100806.55;130148;1275;114989;-71
2023/10/04 00:59:19;;;;;;;6.00;2.50;;;;;;;13.86;88.84;100813.11;130304;1254;115521;-71
2023/10/04 01:02:21;;;;;;;5.50;2.90;;;;;;;13.86;88.70;100810.43;130457;1256;114788;-71
2023/10/04 01:05:26;;;;;;;7.20;2.40;;;;;;;13.83;88.50;100812.21;130461;1256;114746;-71
2023/10/04 01:08:28;;;;;;;6.00;2.40;;;;;;;13.75;88.26;100812.31;130580;1257;114724;-70
2023/10/04 01:11:37;;;;;;;9.30;3.40;;;;;;;13.65;88.08;100816.95;130410;1275;115224;-71
2023/10/04 01:14:39;;;;;;;5.10;3.00;;;;;;;13.57;88.23;100821.00;130398;1257;114805;-72
2023/10/04 01:18:46;;;;;;;7.50;2.70;;;;;;;13.48;87.99;100828.45;131507;1252;114831;-69
2023/10/04 01:22:16;;;;;;;;;;;;;;;;;;;;;
2023/10/04 01:26:25;;;;;;;6.40;2.30;;;;;;;13.26;88.08;100852.56;130224;1257;114671;-66
2023/10/04 01:30:22;;;;;;;4.80;2.50;;;;;;;13.18;88.33;100854.36;128859;1273;115043;-66
2023/10/04 01:34:23;;;;;;;;;;;;;;;;;;;;;
2023/10/04 01:38:09;;;;;;;10.20;2.70;;;;;;;13.05;88.20;100868.85;126307;1295;129854;-65
2023/10/04 01:41:38;;;;;;;7.40;2.40;;;;;;;12.98;88.12;100871.35;126369;1294;115045;-65
2023/10/04 01:45:52;;;;;;;5.80;2.40;;;;;;;12.90;88.29;100874.26;126389;1294;115205;-65
2023/10/04 01:49:18;;;;;;;9.40;2.80;;;;;;;12.78;88.55;100876.83;125833;1297;115066;-66
2023/10/04 01:53:11;;;;;;;7.70;2.70;;;;;;;12.67;88.66;100875.39;125809;1299;115881;-65
2023/10/04 01:57:09;;;;;;;;;;;;;;;;;;;;;
2023/10/04 02:01:12;;;;;;;7.90;2.30;;;;;;;12.48;88.81;100887.20;125144;1308;115334;-66
2023/10/04 02:05:31;;;;;;;8.20;2.40;;;;;;;12.42;88.80;100892.88;124009;1317;114923;-66
2023/10/04 02:08:55;;;;;;;4.10;1.70;;;;;;;12.41;89.11;100905.98;125094;1309;115370;-65
2023/10/04 02:12:33;;;;;;;8.70;2.20;;;;;;;12.44;89.40;100900.14;126123;1292;114806;-65
2023/10/04 02:16:19;;;;;;;;;;;;;;;;;;;;;
2023/10/04 02:24:27;;;;;;;;;;;;;;;;;;;;;
2023/10/04 02:28:17;;;;;;;;;;;;;;;;;;;;;
2023/10/04 02:32:01;;;;;;;6.30;2.30;;;;;;;12.61;89.68;100904.89;128866;1296;114893;-74
2023/10/04 02:35:52;;;;;;;7.00;2.70;;;;;;;12.65;89.82;100912.20;127825;1286;114864;-74
2023/10/04 02:39:37;;;;;;;5.90;2.30;;;;;;;12.70;89.83;100910.21;123468;1289;114945;-78
2023/10/04 02:43:36;;;;;;;;;;;;;;;;;;;;;
2023/10/04 02:46:55;;;;;;;11.50;3.90;;;;;;;12.64;89.20;100910.83;126369;1293;114785;-69
2023/10/04 02:50:42;;;;;;;;;;;;;;;;;;;;;
2023/10/04 02:54:31;;;;;;;9.40;3.10;;;;;;;12.53;89.33;100922.09;126775;1295;115363;-71
2023/10/04 02:58:12;;;;;;;;;;;;;;;;;;;;;
2023/10/04 03:01:57;;;;;;;9.80;3.20;;;;;;;12.47;89.57;100937.98;125501;1302;115425;-74
2023/10/04 03:05:45;;;;;;;;;;;;;;;;;;;;;
2023/10/04 03:09:22;;;;;;;;;;;;;;;;;;;;;
2023/10/04 03:13:24;;;;;;;;;;;;;;;;;;;;;
2023/10/04 03:21:46;;;;;;;5.80;3.20;;;;;;;12.63;90.01;100941.88;126553;1295;636187;-71
2023/10/04 03:25:47;;;;;;;7.40;3.30;;;;;;;12.65;90.01;100940.03;128941;1275;129164;-76
2023/10/04 03:29:46;;;;;;;;;;;;;;;;;;;;;
2023/10/04 03:33:38;;;;;;;;;;;;;;;;;;;;;
2023/10/04 03:37:41;;;;;;;;;;;;;;;;;;;;;
2023/10/04 03:41:36;;;;;;;;;;;;;;;;;;;;;
2023/10/04 03:45:21;;;;;;;;;;;;;;;;;;;;;
2023/10/04 03:49:21;;;;;;;;;;;;;;;;;;;;;
2023/10/04 03:53:36;;;;;;;15.70;3.40;;;;;;;12.84;90.10;100973.86;126596;1293;636207;-82
2023/10/04 03:57:11;;;;;;;8.70;3.50;;;;;;;12.84;89.99;100981.20;128647;1278;128807;-79
2023/10/04 04:01:05;;;;;;;;;;;;;;;;;;;;;
2023/10/04 04:04:57;;;;;;;6.40;3.10;;;;;;;12.84;89.61;100987.33;127227;1284;114933;-79
2023/10/04 04:08:46;;;;;;;9.10;3.00;;;;;;;12.83;89.43;100986.09;122604;1293;116235;-74
2023/10/04 04:12:15;;;;;;;8.40;2.80;;;;;;;12.82;89.38;100989.95;126478;1297;114809;-74
2023/10/04 04:15:24;;;;;;;7.00;2.50;;;;;;;12.78;89.46;100993.86;125836;1302;115003;-81
2023/10/04 04:18:29;;;;;;;10.40;3.00;;;;;;;12.75;89.14;101004.41;125997;1302;129697;-74
2023/10/04 04:22:32;;;;;;;9.80;2.90;;;;;;;12.71;89.15;101011.21;125954;1318;115299;-80
2023/10/04 04:26:26;;;;;;;;;;;;;;;;;;;;;
2023/10/04 04:30:28;;;;;;;;;;;;;;;;;;;;;
2023/10/04 04:34:52;;;;;;;9.00;2.70;;;;;;;12.59;88.98;101024.35;126571;1297;636720;-73
2023/10/04 04:42:06;;;;;;;6.60;1.90;;;;;;;12.43;89.16;101023.98;126806;1299;115069;-80
2023/10/04 04:45:29;;;;;;;5.80;2.30;;;;;;;12.36;88.85;101031.11;126878;1292;114801;-84
2023/10/04 04:49:19;;;;;;;;;;;;;;;;;;;;;
2023/10/04 04:53:15;;;;;;;;;;;;;;;;;;;;;
2023/10/04 04:57:17;;;;;;;7.60;2.50;;;;;;;12.28;89.43;101049.56;126138;1296;129762;-79
2023/10/04 05:05:25;;;;;;;8.30;2.50;;;;;;;12.32;89.26;101051.35;126557;1299;114946;-73
2023/10/04 05:09:20;;;;;;;8.70;2.40;;;;;;;12.35;89.26;101054.44;126136;1302;115048;-79
2023/10/04 05:13:20;;;;;;;;;;;;;;;;;;;;;
2023/10/04 05:17:20;;;;;;;;;;;;;;;;;;;;;
2023/10/04 05:21:22;;;;;;;7.40;2.60;;;;;;;12.41;88.81;101062.23;125881;1307;115295;-75
2023/10/04 05:29:38;;;;;;;;;;;;;;;;;;;;;
2023/10/04 05:33:40;;;;;;;;;;;;;;;;;;;;;
2023/10/04 05:37:44;;;;;;;5.30;2.00;;;;;;;12.31;88.66;101073.43;128511;1280;115488;-81
2023/10/04 05:41:33;;;;;;;;;;;;;;;;;;;;;
2023/10/04 05:45:32;;;;;;;11.80;2.80;;;;;;;12.28;88.74;101082.70;127826;1292;114824;-71
2023/10/04 05:49:21;;;;;;;5.20;2.30;;;;;;;12.27;88.56;101088.45;127555;1295;114767;-83
2023/10/04 05:53:19;;;;;;;;;;;;;;;;;;;;;
2023/10/04 05:57:28;;;;;;;9.30;2.30;;;;;;;12.30;88.77;101101.38;127984;1301;128447;-75
2023/10/04 06:01:19;;;;;;;9.40;2.60;;;;;;;12.34;88.58;101105.33;127504;1302;113872;-75
2023/10/04 06:05:14;;;;;;;7.90;2.50;;;;;;;12.39;88.67;101110.34;127482;1307;114810;-76
2023/10/04 06:09:09;;;;;;;6.00;2.30;;;;;;;12.50;88.45;101117.54;125738;1322;115065;-70
2023/10/04 06:16:59;;;;;;;5.40;1.90;;;;;;;12.80;88.44;101111.00;124961;1311;130086;-65
2023/10/04 06:21:00;;;;;;;14.70;2.10;;;;;;;12.95;88.03;101115.55;125921;1304;115253;-65
2023/10/04 06:24:39;;;;;;;;;;;;;;;;;;;;;
2023/10/04 06:28:27;;;;;;;4.10;2.00;;;;;;;13.24;87.43;101127.27;125488;1321;115950;-65
2023/10/04 06:32:20;;;;;;;6.60;2.30;;;;;;;13.39;87.13;101130.88;125732;1305;115434;-65
2023/10/04 06:36:21;;;;;;;5.60;1.90;;;;;;;13.55;87.10;101133.73;125402;1306;128837;-65
2023/10/04 06:40:21;;;;;;;7.40;2.30;;;;;;;13.74;86.85;101138.38;125631;1304;115438;-66
2023/10/04 06:43:45;;;;;;;5.20;2.20;;;;;;;13.91;86.60;101142.02;124821;1329;115011;-66
2023/10/04 06:47:45;;;;;;;;;;;;;;;;;;;;;
2023/10/04 06:51:33;;;;;;;5.10;2.30;;;;;;;14.32;85.72;101141.18;125025;1311;114913;-68
2023/10/04 06:55:34;;;;;;;6.40;2.10;;;;;;;14.58;85.39;101139.66;125927;1302;129895;-67
2023/10/04 06:59:33;;;;;;;5.20;2.00;;;;;;;14.84;84.84;101139.22;125357;1328;114942;-67
2023/10/04 07:03:28;;;;;;;;;;;;;;;;;;;;;
2023/10/04 07:07:15;;;;;;;7.40;1.80;;;;;;;15.39;83.88;101137.48;125061;1312;116508;-69
2023/10/04 07:11:00;;;;;;;5.40;2.30;;;;;;;15.65;83.24;101141.23;125486;1308;114970;-71
2023/10/04 07:14:47;;;;;;;6.60;2.50;;;;;;;15.88;82.38;101143.90;125464;1315;128223;-71
2023/10/04 07:18:33;;;;;;;12.30;2.70;;;;;;;16.18;82.22;101146.62;125508;1307;115403;-70
2023/10/04 07:22:04;;;;;;;4.20;2.00;;;;;;;16.47;81.44;101149.39;125478;1308;115263;-70
2023/10/04 07:25:49;;;;;;;;;;;;;;;;;;;;;
2023/10/04 07:29:33;;;;;;;5.00;1.90;;;;;;;17.08;79.62;101144.77;125448;1318;114945;-70
2023/10/04 07:33:26;;;;;;;5.30;2.10;;;;;;;17.41;79.06;101145.77;125223;1313;130002;-70
2023/10/04 07:37:05;;;;;;;;;;;;;;;;;;;;;
2023/10/04 07:40:59;;;;;;;6.50;2.20;;;;;;;17.87;77.22;101148.55;126092;1296;115517;-70
2023/10/04 07:44:46;;;;;;;6.20;2.10;;;;;;;18.08;76.30;101147.55;126083;1302;115194;-70
2023/10/04 07:48:47;;;;;;;4.40;2.10;;;;;;;18.35;76.00;101149.49;126033;1315;114930;-67
2023/10/04 07:52:38;;;;;;;7.00;2.10;;;;;;;18.76;75.16;101153.17;125239;1328;130341;-65
2023/10/04 08:00:24;;;;;;;;;;;;;;;;;;;;;
2023/10/04 08:04:29;;;;;;;6.60;2.30;;;;;;;19.58;71.68;101157.14;128559;1290;128057;-65
2023/10/04 08:07:55;;;;;;;4.50;1.70;;;;;;;19.63;71.46;101158.61;129054;1275;114843;-67
2023/10/04 08:11:14;;;;;;;;;;;;;;;;;;;;;
2023/10/04 08:14:36;;;;;;;;;;;;;;;;;;;;;
2023/10/04 08:18:08;;;;;;;;;;;;;;;;;;;;;
2023/10/04 08:21:34;;;;;;;3.30;1.70;;;;;;;19.39;69.37;101150.39;129299;1273;114805;-66
2023/10/04 08:25:14;;;;;;;2.70;1.50;;;;;;;19.41;69.10;101151.45;129121;1274;127846;-66
2023/10/04 08:28:58;;;;;;;;;;;;;;;;;;;;;
2023/10/04 08:32:33;;;;;;;;;;;;;;;;;;;;;
2023/10/04 08:36:10;;;;;;;;;;;;;;;;;;;;;
2023/10/04 08:39:37;;;;;;;5.80;2.50;;;;;;;19.53;67.34;101156.59;127953;1286;114913;-67
2023/10/04 08:43:29;;;;;;;7.80;2.60;;;;;;;19.53;67.35;101154.95;127677;1286;127811;-69
2023/10/04 08:47:14;;;;;;;4.90;1.80;;;;;;;19.55;66.93;101162.95;126942;1296;115214;-64
2023/10/04 08:51:20;;;;;;;;;;;;;;;;;;;;;
2023/10/04 08:55:09;;;;;;;;;;;;;;;;;;;;;
2023/10/04 08:59:06;;;;;;;3.30;2.00;;;;;;;19.72;65.93;101162.40;126152;1293;114870;-67
2023/10/04 09:02:42;;;;;;;;;;;;;;;;;;;;;
2023/10/04 09:06:22;;;;;;;11.80;3.00;;;;;;;19.79;64.97;101161.42;125905;1309;116942;-70
2023/10/04 09:10:10;;;;;;;6.50;1.80;;;;;;;19.85;64.80;101163.09;125943;1312;114825;-67
2023/10/04 09:14:07;;;;;;;;;;;;;;;;;;;;;
2023/10/04 09:17:57;;;;;;;;;;;;;;;;;;;;;
2023/10/04 09:21:22;;;;;;;6.00;2.20;;;;;;;20.06;64.03;101171.75;126311;1293;128884;-64
2023/10/04 09:24:24;;;;;;;10.20;2.80;;;;;;;20.10;63.90;101169.79;126873;1304;114945;-62
2023/10/04 09:28:13;;;;;;;7.40;2.40;;;;;;;20.06;63.30;101170.10;127261;1284;115359;-61
2023/10/04 09:31:19;;;;;;;5.70;2.40;;;;;;;20.05;63.05;101172.70;127116;1300;114737;-63
2023/10/04 09:34:25;;;;;;;4.70;1.80;;;;;;;20.04;62.67;101172.77;127050;1288;114934;-63
2023/10/04 09:37:27;;;;;;;6.20;1.80;;;;;;;20.01;62.25;101174.10;126791;1305;128861;-61
2023/10/04 09:41:28;;;;;;;4.50;1.60;;;;;;;20.00;62.20;101170.23;127275;1300;115539;-62
2023/10/04 09:44:53;;;;;;;;;;;;;;;;;;;;;
2023/10/04 09:48:01;;;;;;;5.00;2.10;;;;;;;19.95;61.83;101171.99;127757;1279;115334;-59
2023/10/04 09:51:09;;;;;;;4.20;1.90;;;;;;;19.97;61.65;101173.85;127717;1283;114807;-62
2023/10/04 09:54:16;;;;;;;5.10;2.10;;;;;;;20.00;61.39;101174.17;128689;1283;128815;-62
2023/10/04 09:57:35;;;;;;;;;;;;;;;;;;;;;
2023/10/04 10:00:48;;;;;;;6.30;2.00;;;;;;;20.11;61.27;101173.01;128684;1269;114948;-61
2023/10/04 10:03:59;;;;;;;5.70;2.00;;;;;;;20.12;61.09;101170.73;128992;1273;114846;-64
2023/10/04 10:07:30;;;;;;;6.30;2.40;;;;;;;20.12;60.78;101166.91;129051;1282;115173;-61
2023/10/04 10:10:41;;;;;;;8.20;2.90;;;;;;;20.13;60.80;101172.30;130048;1264;128967;-60
2023/10/04 10:13:52;;;;;;;9.90;2.90;;;;;;;20.20;60.85;101168.87;129213;1270;115220;-62
2023/10/04 10:17:12;;;;;;;6.40;2.00;;;;;;;20.22;60.68;101169.05;129759;1266;114776;-61
2023/10/04 10:20:37;;;;;;;;;;;;;;;;;;;;;
2023/10/04 10:24:35;;;;;;;8.00;2.50;;;;;;;20.10;59.91;101163.61;129479;1280;116408;-61
2023/10/04 10:27:43;;;;;;;4.60;1.70;;;;;;;20.03;59.62;101161.95;128652;1288;128816;-64
2023/10/04 10:30:46;;;;;;;5.90;2.10;;;;;;;19.97;59.73;101160.61;128849;1280;115341;-61
2023/10/04 10:34:05;;;;;;;;;;;;;;;;;;;;;
2023/10/04 10:37:38;;;;;;;8.00;2.30;;;;;;;19.87;59.67;101156.07;128455;1279;114868;-63
2023/10/04 10:40:41;;;;;;;6.30;2.10;;;;;;;19.91;59.82;101156.22;128974;1270;115196;-60
2023/10/04 10:44:18;;;;;;;7.90;2.60;;;;;;;19.92;59.73;101158.86;128899;1272;115092;-61
2023/10/04 10:47:46;;;;;;;9.20;3.10;;;;;;;19.95;59.45;101161.85;128666;1282;115700;-61
2023/10/04 10:50:53;;;;;;;10.00;2.70;;;;;;;20.00;59.58;101160.90;127984;1280;114908;-64
2023/10/04 10:54:28;;;;;;;;;;;;;;;;;;;;;
2023/10/04 10:57:37;;;;;;;4.10;1.70;;;;;;;20.19;59.28;101158.75;127918;1283;114858;-63
2023/10/04 11:01:38;;;;;;;5.00;2.60;;;;;;;20.29;59.40;101150.95;128753;1270;128879;-68
2023/10/04 11:05:16;;;;;;;5.60;2.50;;;;;;;20.35;58.83;101153.03;128438;1287;115200;-65
2023/10/04 11:08:28;;;;;;;8.20;3.00;;;;;;;20.39;58.84;101149.29;128075;1291;114926;-64
2023/10/04 11:11:47;;;;;;;6.50;2.00;;;;;;;20.42;58.72;101155.94;128432;1287;115018;-67
2023/10/04 11:15:24;;;;;;;4.40;2.50;;;;;;;20.38;58.64;101152.45;128493;1274;115006;-66
2023/10/04 11:19:19;;;;;;;5.30;2.10;;;;;;;20.36;58.54;101155.46;127905;1295;129194;-65
2023/10/04 11:23:20;;;;;;;;;;;;;;;;;;;;;
2023/10/04 11:26:29;;;;;;;5.50;2.00;;;;;;;20.13;57.95;101156.55;127052;1283;115348;-65
2023/10/04 11:29:52;;;;;;;5.30;2.50;;;;;;;20.06;58.19;101150.69;128074;1290;116099;-66
2023/10/04 11:33:03;;;;;;;5.50;2.10;;;;;;;19.99;58.19;101154.29;128306;1291;114964;-64
2023/10/04 11:36:30;;;;;;;;;;;;;;;;;;;;;
2023/10/04 11:39:38;;;;;;;7.70;2.70;;;;;;;19.79;57.95;101157.93;127032;1300;115230;-66
2023/10/04 11:42:44;;;;;;;5.80;2.20;;;;;;;19.76;58.19;101155.65;128017;1283;115024;-65
2023/10/04 11:45:50;;;;;;;5.10;2.40;;;;;;;19.73;58.09;101154.56;128356;1278;114798;-64
2023/10/04 11:49:14;;;;;;;8.80;2.50;;;;;;;19.74;58.32;101154.86;128859;1272;115528;-66
2023/10/04 11:52:27;;;;;;;9.40;3.00;;;;;;;19.79;58.56;101151.56;128564;1279;127587;-65
2023/10/04 11:55:36;;;;;;;6.60;2.40;;;;;;;19.88;58.66;101146.59;129071;1273;114925;-66
2023/10/04 11:58:58;;;;;;;4.90;2.60;;;;;;;19.91;58.20;101140.78;128594;1276;115341;-64
2023/10/04 12:02:22;;;;;;;7.90;2.60;;;;;;;19.92;57.87;101134.16;129414;1273;114953;-65
2023/10/04 12:05:28;;;;;;;4.90;2.60;;;;;;;19.94;57.77;101129.12;130029;1271;114782;-64
2023/10/04 12:08:38;;;;;;;4.60;2.20;;;;;;;19.93;57.78;101126.64;129781;1263;128197;-66
2023/10/04 12:11:59;;;;;;;;;;;;;;;;;;;;;
2023/10/04 12:15:17;;;;;;;;;;;;;;;;;;;;;
2023/10/04 12:19:21;;;;;;;8.20;2.50;;;;;;;19.90;57.19;101138.30;129651;1262;114737;-66
2023/10/04 12:22:50;;;;;;;9.80;3.00;;;;;;;19.89;57.06;101133.84;129640;1281;114810;-66
2023/10/04 12:25:53;;;;;;;5.60;2.60;;;;;;;19.83;57.12;101133.54;130009;1281;129023;-66
2023/10/04 12:29:05;;;;;;;9.10;2.40;;;;;;;19.74;56.94;101131.67;129774;1281;115337;-66
2023/10/04 12:32:15;;;;;;;6.30;2.90;;;;;;;19.68;57.17;101128.98;129815;1273;114897;-65
2023/10/04 12:35:29;;;;;;;5.90;2.00;;;;;;;19.66;57.52;101134.09;129269;1268;114794;-65
2023/10/04 12:38:41;;;;;;;4.70;2.60;;;;;;;19.60;57.43;101135.39;129500;1281;114721;-67
2023/10/04 12:41:46;;;;;;;5.80;2.80;;;;;;;19.52;57.13;101133.98;129641;1270;128913;-66
2023/10/04 12:44:56;;;;;;;9.10;3.10;;;;;;;19.48;57.19;101133.23;129708;1267;116572;-64
2023/10/04 12:48:01;;;;;;;8.10;3.40;;;;;;;19.46;56.97;101129.39;129638;1257;114726;-65
2023/10/04 12:51:07;;;;;;;5.60;2.90;;;;;;;19.39;57.09;101127.02;129597;1258;115183;-66
2023/10/04 12:54:09;;;;;;;5.20;2.80;;;;;;;19.30;56.93;101129.48;129372;1269;115166;-66
2023/10/04 12:57:30;;;;;;;4.60;2.60;;;;;;;19.20;56.98;101128.39;129623;1281;114731;-67
2023/10/04 13:00:42;;;;;;;7.10;2.90;;;;;;;19.14;57.37;101137.89;129759;1281;114817;-63
2023/10/04 13:03:47;;;;;;;8.90;2.70;;;;;;;19.12;57.82;101141.27;129693;1263;114750;-68
2023/10/04 13:06:52;;;;;;;5.00;2.70;;;;;;;19.06;57.60;101142.45;130058;1264;114734;-64
2023/10/04 13:09:59;;;;;;;7.60;3.10;;;;;;;18.96;57.27;101143.83;129861;1281;114771;-65
2023/10/04 13:13:07;;;;;;;6.00;2.90;;;;;;;18.89;57.41;101143.10;129661;1263;128653;-68
2023/10/04 13:16:21;;;;;;;6.10;2.50;;;;;;;18.91;57.70;101139.27;130010;1281;114726;-64
2023/10/04 13:19:45;;;;;;;5.00;2.20;;;;;;;18.94;57.68;101135.30;129623;1262;114715;-66
2023/10/04 13:23:03;;;;;;;4.80;2.40;;;;;;;18.96;57.66;101129.02;129329;1270;115158;-64
2023/10/04 13:26:10;;;;;;;5.20;2.40;;;;;;;18.92;57.54;101128.17;129739;1257;115189;-66
2023/10/04 13:29:14;;;;;;;11.00;2.50;;;;;;;18.85;57.61;101129.58;130022;1270;128503;-65
2023/10/04 13:32:27;;;;;;;4.20;3.30;;;;;;;18.77;57.25;101129.02;129905;1274;115271;-65
2023/10/04 13:35:51;;;;;;;6.60;2.40;;;;;;;18.65;57.34;101125.89;129687;1257;114828;-64
2023/10/04 13:39:03;;;;;;;6.00;2.50;;;;;;;18.57;57.87;101117.08;129617;1270;114812;-65
2023/10/04 13:42:05;;;;;;;7.10;2.70;;;;;;;18.49;57.72;101115.95;129905;1280;114709;-64
2023/10/04 13:45:18;;;;;;;6.90;3.20;;;;;;;18.41;57.75;101112.95;129647;1281;114680;-65
2023/10/04 13:48:22;;;;;;;8.30;2.50;;;;;;;18.29;57.91;101116.44;129812;1281;115299;-65
2023/10/04 13:51:25;;;;;;;5.50;2.50;;;;;;;18.19;57.98;101121.48;129578;1264;115215;-63
2023/10/04 13:54:34;;;;;;;9.10;2.70;;;;;;;18.10;58.25;101120.45;129578;1264;115077;-63
2023/10/04 13:57:38;;;;;;;6.00;2.20;;;;;;;18.03;58.31;101122.95;129985;1263;115084;-63
2023/10/04 14:00:49;;;;;;;4.40;2.80;;;;;;;17.96;58.33;101121.92;129721;1265;128784;-62
2023/10/04 14:04:20;;;;;;;7.90;2.80;;;;;;;17.91;58.50;101125.16;129701;1260;115310;-64
2023/10/04 14:07:23;;;;;;;5.90;2.50;;;;;;;17.83;58.19;101121.54;129955;1259;114718;-63
2023/10/04 14:10:35;;;;;;;7.30;2.90;;;;;;;17.78;58.40;101125.47;129937;1257;114833;-64
2023/10/04 14:13:51;;;;;;;8.40;3.00;;;;;;;17.77;58.69;101122.84;130244;1267;115068;-64
2023/10/04 14:17:07;;;;;;;9.60;2.90;;;;;;;17.78;58.88;101121.35;129993;1276;126774;-64
2023/10/04 14:20:16;;;;;;;9.50;2.80;;;;;;;17.84;59.09;101122.72;129782;1264;115211;-64
2023/10/04 14:23:30;;;;;;;6.10;3.40;;;;;;;17.93;58.95;101125.75;130172;1260;114714;-65
2023/10/04 14:26:33;;;;;;;8.10;3.00;;;;;;;17.98;59.08;101125.06;130261;1270;114748;-64
2023/10/04 14:30:42;;;;;;;7.10;3.20;;;;;;;17.97;58.45;101124.56;129868;1259;115321;-64
2023/10/04 14:33:25;;;;;;;7.90;3.60;;;;;;;17.90;58.70;101126.48;129618;1279;128972;-66
2023/10/04 14:36:33;;;;;;;7.60;3.60;;;;;;;17.86;59.11;101126.03;130071;1266;115189;-64
2023/10/04 14:39:59;;;;;;;8.00;3.60;;;;;;;17.79;59.16;101124.67;130299;1260;114720;-66
2023/10/04 14:43:11;;;;;;;13.80;4.80;;;;;;;17.71;59.08;101115.48;130222;1261;115455;-64
2023/10/04 14:46:24;;;;;;;13.90;4.20;;;;;;;17.60;59.42;101117.63;130234;1257;114714;-63
2023/10/04 14:49:45;;;;;;;10.60;3.50;;;;;;;17.52;59.53;101121.77;129473;1263;128717;-64
2023/10/04 14:52:51;;;;;;;8.20;3.80;;;;;;;17.44;59.99;101122.43;129836;1279;115281;-66
2023/10/04 14:56:29;;;;;;;;;;;;;;;;;;;;;
2023/10/04 14:59:35;;;;;;;8.90;3.40;;;;;;;17.26;60.04;101120.92;130303;1260;114731;-67
2023/10/04 15:02:50;;;;;;;4.60;2.90;;;;;;;17.20;60.02;101123.68;129948;1264;114916;-65
2023/10/04 15:05:53;;;;;;;9.10;4.20;;;;;;;17.11;59.81;101117.56;129861;1261;128937;-65
2023/10/04 15:09:07;;;;;;;6.80;3.60;;;;;;;17.02;60.05;101117.73;129858;1259;115111;-64
2023/10/04 15:12:19;;;;;;;9.40;3.90;;;;;;;16.95;60.23;101118.17;130010;1264;114868;-65
2023/10/04 15:15:21;;;;;;;9.10;3.10;;;;;;;16.85;60.37;101109.38;129777;1279;114635;-65
2023/10/04 15:18:24;;;;;;;8.70;3.30;;;;;;;16.77;60.62;101108.11;129693;1279;114719;-64
2023/10/04 15:21:37;;;;;;;9.40;3.30;;;;;;;16.69;60.71;101107.83;129799;1279;114752;-67
2023/10/04 15:24:43;;;;;;;10.10;3.50;;;;;;;16.61;60.78;101109.29;129696;1257;115263;-65
2023/10/04 15:27:59;;;;;;;6.30;3.00;;;;;;;16.53;61.07;101110.11;129777;1256;114728;-66
2023/10/04 15:31:12;;;;;;;8.60;3.30;;;;;;;16.45;61.27;101111.11;129707;1260;114833;-65
2023/10/04 15:34:24;;;;;;;11.60;3.50;;;;;;;16.37;61.61;101110.70;129938;1264;115007;-64
2023/10/04 15:37:54;;;;;;;;;;;;;;;;;;;;;
2023/10/04 15:41:21;;;;;;;8.60;3.60;;;;;;;16.16;61.92;101113.96;129871;1279;116407;-65
2023/10/04 15:44:34;;;;;;;8.90;3.20;;;;;;;16.05;61.87;101111.02;129777;1270;114770;-65
2023/10/04 15:47:47;;;;;;;6.40;3.10;;;;;;;15.94;62.43;101111.30;130140;1257;115164;-65
2023/10/04 15:50:49;;;;;;;9.50;5.10;;;;;;;15.84;62.45;101109.89;129784;1262;114783;-65
2023/10/04 15:53:55;;;;;;;8.10;3.30;;;;;;;15.73;62.79;101114.47;129843;1260;114786;-64
2023/10/04 15:57:17;;;;;;;;;;;;;;;;;;;;;
2023/10/04 16:01:02;;;;;;;7.50;3.00;;;;;;;15.50;63.26;101123.53;129749;1260;114836;-65
2023/10/04 16:04:50;;;;;;;9.90;3.50;;;;;;;15.37;63.65;101126.45;130242;1276;114823;-65
2023/10/04 16:08:26;;;;;;;12.20;3.30;;;;;;;15.21;63.81;101128.39;130018;1264;114802;-65
2023/10/04 16:11:58;;;;;;;10.80;3.60;;;;;;;15.08;64.03;101133.10;129876;1261;128841;-64
2023/10/04 16:15:28;;;;;;;;;;;;;;;;;;;;;
2023/10/04 16:18:41;;;;;;;6.50;3.30;;;;;;;14.80;64.83;101141.56;129698;1258;114790;-64
2023/10/04 16:21:46;;;;;;;6.10;3.30;;;;;;;14.67;65.17;101137.61;129787;1279;114821;-65
2023/10/04 16:24:59;;;;;;;6.30;3.20;;;;;;;14.52;65.12;101141.41;129776;1260;114994;-65
2023/10/04 16:28:03;;;;;;;8.50;3.20;;;;;;;14.38;65.44;101150.40;129768;1270;128840;-64
2023/10/04 16:31:16;;;;;;;9.00;3.50;;;;;;;14.25;65.64;101153.58;129972;1257;115156;-64
2023/10/04 16:34:19;;;;;;;9.10;3.00;;;;;;;14.12;65.69;101158.73;130168;1257;115426;-64
2023/10/04 16:37:25;;;;;;;9.20;3.10;;;;;;;14.00;66.16;101164.17;129574;1260;115682;-65
2023/10/04 16:40:29;;;;;;;10.80;3.90;;;;;;;13.88;66.38;101163.36;129522;1273;114922;-66
2023/10/04 16:43:35;;;;;;;14.10;4.10;;;;;;;13.76;66.63;101168.78;129756;1254;127903;-64
2023/10/04 16:46:41;;;;;;;11.60;4.00;;;;;;;13.64;67.00;101172.41;130210;1262;114696;-65
2023/10/04 16:49:51;;;;;;;8.90;3.50;;;;;;;13.52;67.35;101174.41;130136;1275;114814;-65
2023/10/04 16:53:03;;;;;;;9.80;3.90;;;;;;;13.41;67.57;101173.31;130206;1256;114841;-65
2023/10/04 16:56:10;;;;;;;6.40;3.50;;;;;;;13.29;67.84;101173.30;130128;1256;114867;-64
2023/10/04 16:59:22;;;;;;;8.80;3.70;;;;;;;13.19;68.12;101170.17;130394;1258;128871;-65
2023/10/04 17:02:24;;;;;;;7.10;3.70;;;;;;;13.09;68.59;101171.02;130070;1275;115182;-65
2023/10/04 17:06:02;;;;;;;8.90;3.30;;;;;;;13.00;68.49;101175.75;130043;1257;115186;-63
2023/10/04 17:09:11;;;;;;;7.60;3.30;;;;;;;12.89;69.03;101177.80;130083;1257;114786;-64
2023/10/04 17:12:17;;;;;;;8.40;3.80;;;;;;;12.81;69.31;101174.42;130210;1254;114917;-65
2023/10/04 17:15:35;;;;;;;10.50;4.20;;;;;;;12.73;69.27;101176.04;130044;1264;129165;-65
2023/10/04 17:18:45;;;;;;;8.40;3.60;;;;;;;12.64;69.73;101177.86;129963;1254;115257;-65
2023/10/04 17:21:56;;;;;;;10.80;4.10;;;;;;;12.56;69.83;101184.65;130075;1275;114721;-66
2023/10/04 17:25:02;;;;;;;11.00;3.90;;;;;;;12.49;70.30;101180.48;130058;1257;114853;-64
2023/10/04 17:28:15;;;;;;;7.50;3.40;;;;;;;12.41;70.46;101186.00;129708;1275;115112;-64
2023/10/04 17:31:19;;;;;;;14.00;4.30;;;;;;;12.33;70.65;101184.02;130125;1275;128830;-64
2023/10/04 17:34:22;;;;;;;10.40;5.10;;;;;;;12.26;70.65;101185.58;130200;1275;114780;-64
2023/10/04 17:37:27;;;;;;;12.00;4.40;;;;;;;12.18;70.88;101187.34;130255;1254;114712;-63
2023/10/04 17:40:30;;;;;;;11.00;4.60;;;;;;;12.11;71.29;101186.04;130140;1258;114836;-64
2023/10/04 17:43:34;;;;;;;13.30;5.70;;;;;;;12.04;71.78;101187.58;129986;1257;115201;-65
2023/10/04 17:46:36;;;;;;;11.70;6.90;;;;;;;11.96;72.01;101188.06;130174;1256;114715;-66
2023/10/04 17:49:52;;;;;;;19.90;9.20;;;;;;;11.89;71.94;101191.39;130174;1254;114839;-65
2023/10/04 17:52:57;;;;;;;;;;;;;;;11.81;72.46;101192.96;130385;1257;114696;-65
2023/10/04 17:56:10;;;;;;;;;;;;;;;11.72;72.71;101194.90;130114;1256;114781;-64
2023/10/04 17:59:17;;;;;;;16.40;5.80;;;;;;;11.64;73.05;101195.06;130124;1253;114719;-65